createdAt,value
2022-10-17T00:01:23.454Z,42.78
2022-10-17T00:04:25.818Z,43.08
2022-10-17T00:07:28.177Z,40.75
2022-10-17T00:10:30.657Z,41.85
2022-10-17T00:16:55.728Z,41.28
2022-10-17T00:20:00.251Z,39.17
2022-10-17T00:23:02.391Z,42.70
2022-10-17T00:26:05.935Z,43.20
2022-10-17T00:29:08.113Z,40.83
2022-10-17T00:32:10.280Z,46.08
2022-10-17T00:35:12.529Z,43.88
2022-10-17T00:38:14.675Z,42.75
2022-10-17T00:41:20.578Z,45.60
2022-10-17T00:44:31.905Z,41.65
2022-10-17T00:47:35.349Z,40.08
2022-10-17T00:50:39.936Z,43.80
2022-10-17T00:53:42.327Z,41.17
2022-10-17T00:56:46.958Z,48.95
2022-10-17T00:59:53.161Z,41.78
2022-10-17T01:02:55.403Z,42.35
2022-10-17T01:05:57.795Z,43.92
2022-10-17T01:09:00.137Z,41.72
2022-10-17T01:12:19.244Z,43.53
2022-10-17T01:15:32.903Z,41.75
2022-10-17T01:18:59.060Z,41.47
2022-10-17T01:22:04.407Z,40.58
2022-10-17T01:25:12.097Z,41.35
2022-10-17T01:28:55.525Z,42.50
2022-10-17T01:32:00.765Z,45.72
2022-10-17T01:35:12.387Z,42.95
2022-10-17T01:38:26.834Z,41.17
2022-10-17T01:41:36.197Z,42.10
2022-10-17T01:45:07.700Z,39.92
2022-10-17T01:48:18.866Z,40.38
2022-10-17T01:51:33.343Z,41.53
2022-10-17T01:54:59.835Z,42.65
2022-10-17T01:58:08.269Z,41.75
2022-10-17T02:01:13.032Z,42.75
2022-10-17T02:04:16.620Z,43.40
2022-10-17T02:07:18.762Z,45.88
2022-10-17T02:10:53.000Z,41.63
2022-10-17T02:14:21.430Z,38.67
2022-10-17T02:18:14.504Z,38.80
2022-10-17T02:21:47.620Z,38.60
2022-10-17T02:24:58.366Z,42.75
2022-10-17T02:28:03.610Z,42.17
2022-10-17T02:31:26.882Z,39.55
2022-10-17T02:34:38.469Z,40.65
2022-10-17T02:37:44.650Z,37.78
2022-10-17T02:40:49.670Z,37.47
2022-10-17T02:43:55.619Z,38.83
2022-10-17T02:47:09.029Z,38.70
2022-10-17T02:50:11.765Z,38.92
2022-10-17T02:53:25.185Z,37.40
2022-10-17T02:56:31.077Z,36.95
2022-10-17T02:59:36.266Z,36.70
2022-10-17T03:02:41.448Z,41.15
2022-10-17T03:05:44.703Z,38.78
2022-10-17T03:08:46.814Z,35.83
2022-10-17T03:11:49.020Z,40.08
2022-10-17T03:14:51.257Z,37.42
2022-10-17T03:17:53.461Z,39.35
2022-10-17T03:20:55.770Z,37.47
2022-10-17T03:23:58.494Z,38.33
2022-10-17T03:27:00.649Z,37.08
2022-10-17T03:30:02.840Z,43.85
2022-10-17T03:33:06.621Z,39.47
2022-10-17T03:36:11.346Z,39.85
2022-10-17T03:39:13.724Z,40.10
2022-10-17T03:42:15.843Z,41.47
2022-10-17T03:45:18.225Z,38.15
2022-10-17T03:48:21.823Z,38.92
2022-10-17T03:51:24.255Z,40.35
2022-10-17T03:54:31.327Z,38.72
2022-10-17T03:57:35.977Z,38.15
2022-10-17T04:00:39.955Z,40.72
2022-10-17T04:03:43.243Z,36.33
2022-10-17T04:06:45.654Z,36.40
2022-10-17T04:09:47.766Z,38.05
2022-10-17T04:12:54.286Z,36.88
2022-10-17T04:15:58.418Z,41.53
2022-10-17T04:19:01.091Z,42.13
2022-10-17T04:22:08.641Z,37.55
2022-10-17T04:25:16.604Z,39.88
2022-10-17T04:28:21.540Z,41.83
2022-10-17T04:31:24.354Z,43.83
2022-10-17T04:34:50.155Z,39.08
2022-10-17T04:37:53.616Z,39.75
2022-10-17T04:41:03.948Z,38.22
2022-10-17T04:47:11.702Z,36.78
2022-10-17T04:50:14.493Z,41.80
2022-10-17T04:53:17.162Z,39.08
2022-10-17T04:56:22.048Z,39.70
2022-10-17T04:59:24.180Z,38.10
2022-10-17T05:02:39.160Z,39.25
2022-10-17T05:05:42.207Z,40.75
2022-10-17T05:08:45.834Z,37.58
2022-10-17T05:11:47.958Z,38.42
2022-10-17T05:14:50.480Z,38.78
2022-10-17T05:17:56.122Z,39.15
2022-10-17T05:20:59.405Z,37.53
2022-10-17T05:24:01.693Z,40.17
2022-10-17T05:27:03.950Z,41.00
2022-10-17T05:30:07.047Z,40.65
2022-10-17T05:33:11.004Z,38.05
2022-10-17T05:36:13.256Z,40.50
2022-10-17T05:39:19.787Z,41.45
2022-10-17T05:42:24.215Z,41.53
2022-10-17T05:45:26.666Z,37.35
2022-10-17T05:48:28.721Z,42.78
2022-10-17T05:51:34.125Z,39.85
2022-10-17T05:54:38.298Z,39.30
2022-10-17T05:57:40.662Z,36.28
2022-10-17T06:00:47.465Z,41.72
2022-10-17T06:03:49.798Z,41.65
2022-10-17T06:06:52.443Z,40.97
2022-10-17T06:09:54.560Z,43.38
2022-10-17T06:12:57.681Z,40.97
2022-10-17T06:16:01.028Z,40.45
2022-10-17T06:19:04.051Z,37.45
2022-10-17T06:22:06.551Z,38.50
2022-10-17T06:25:10.071Z,34.65
2022-10-17T06:28:12.952Z,38.22
2022-10-17T06:31:17.480Z,36.03
2022-10-17T06:34:19.974Z,40.20
2022-10-17T06:37:22.475Z,38.92
2022-10-17T06:40:24.819Z,42.22
2022-10-17T06:43:28.149Z,41.50
2022-10-17T06:46:52.874Z,42.85
2022-10-17T06:49:56.326Z,42.10
2022-10-17T06:53:04.736Z,37.97
2022-10-17T06:56:23.347Z,42.28
2022-10-17T06:59:41.828Z,41.25
2022-10-17T07:02:47.046Z,39.95
2022-10-17T07:05:53.706Z,35.95
2022-10-17T07:08:56.402Z,39.30
2022-10-17T07:11:59.294Z,34.95
2022-10-17T07:15:02.716Z,41.55
2022-10-17T07:18:05.126Z,38.75
2022-10-17T07:21:08.734Z,34.70
2022-10-17T07:24:11.228Z,36.55
2022-10-17T07:27:16.306Z,36.88
2022-10-17T07:30:19.408Z,41.55
2022-10-17T07:33:32.749Z,37.67
2022-10-17T07:36:34.981Z,46.08
2022-10-17T07:39:40.216Z,41.75
2022-10-17T07:42:42.350Z,41.22
2022-10-17T07:45:44.557Z,43.10
2022-10-17T07:48:46.655Z,44.50
2022-10-17T07:51:50.718Z,44.35
2022-10-17T07:54:52.775Z,40.83
2022-10-17T07:57:55.000Z,48.20
2022-10-17T08:04:23.934Z,43.08
2022-10-17T08:07:29.300Z,40.78
2022-10-17T08:10:31.657Z,37.83
2022-10-17T08:13:34.310Z,44.28
2022-10-17T08:16:36.885Z,41.50
2022-10-17T08:19:40.537Z,35.95
2022-10-17T08:22:42.771Z,34.78
2022-10-17T08:25:44.844Z,31.65
2022-10-17T08:28:48.229Z,37.20
2022-10-17T08:31:54.110Z,33.10
2022-10-17T08:35:01.265Z,33.20
2022-10-17T08:38:03.784Z,40.20
2022-10-17T08:41:33.357Z,31.30
2022-10-17T08:45:08.656Z,39.65
2022-10-17T08:48:16.002Z,37.17
2022-10-17T08:51:29.242Z,39.03
2022-10-17T08:54:47.141Z,40.15
2022-10-17T08:57:49.552Z,31.45
2022-10-17T09:01:22.665Z,39.10
2022-10-17T09:05:01.814Z,37.63
2022-10-17T09:08:26.496Z,39.17
2022-10-17T09:11:45.368Z,33.47
2022-10-17T09:14:59.712Z,33.28
2022-10-17T09:18:21.094Z,31.50
2022-10-17T09:21:44.096Z,43.97
2022-10-17T09:25:07.000Z,36.67
2022-10-17T09:28:12.080Z,34.38
2022-10-17T09:31:42.426Z,34.83
2022-10-17T09:34:44.825Z,35.83
2022-10-17T09:37:47.470Z,34.25
2022-10-17T09:40:57.229Z,38.78
2022-10-17T09:44:14.781Z,35.05
2022-10-17T09:47:23.550Z,38.03
2022-10-17T09:50:27.170Z,36.75
2022-10-17T09:53:38.000Z,35.60
2022-10-17T09:56:59.995Z,36.58
2022-10-17T10:00:06.996Z,34.95
2022-10-17T10:03:26.261Z,38.30
2022-10-17T10:09:36.902Z,35.13
2022-10-17T10:12:41.731Z,40.28
2022-10-17T10:15:48.262Z,32.67
2022-10-17T10:18:51.515Z,34.22
2022-10-17T10:21:59.098Z,37.08
2022-10-17T10:25:08.599Z,38.05
2022-10-17T10:28:12.145Z,37.55
2022-10-17T10:31:14.281Z,35.60
2022-10-17T10:34:30.211Z,33.17
2022-10-17T10:37:56.877Z,27.88
2022-10-17T10:41:07.910Z,31.88
2022-10-17T10:44:15.536Z,34.30
2022-10-17T10:47:23.225Z,38.40
2022-10-17T10:50:48.941Z,38.00
2022-10-17T10:54:06.762Z,31.17
2022-10-17T10:57:20.091Z,30.13
2022-10-17T11:00:26.560Z,29.70
2022-10-17T11:07:13.291Z,31.00
2022-10-17T11:10:22.100Z,34.53
2022-10-17T11:13:30.807Z,37.10
2022-10-17T11:16:46.212Z,30.42
2022-10-17T11:20:03.215Z,31.83
2022-10-17T11:23:20.769Z,25.63
2022-10-17T11:26:27.745Z,33.88
2022-10-17T11:29:33.019Z,32.28
2022-10-17T11:32:38.049Z,33.00
2022-10-17T11:35:44.518Z,39.50
2022-10-17T11:39:01.839Z,38.38
2022-10-17T11:42:10.313Z,40.60
2022-10-17T11:45:17.272Z,35.67
2022-10-17T11:48:41.186Z,37.60
2022-10-17T11:52:05.686Z,38.78
2022-10-17T11:55:31.933Z,30.98
2022-10-17T11:58:54.638Z,32.35
2022-10-17T12:02:05.153Z,34.50
2022-10-17T12:05:18.316Z,36.03
2022-10-17T12:08:51.307Z,41.00
2022-10-17T12:12:02.412Z,42.20
2022-10-17T12:15:13.983Z,41.65
2022-10-17T12:18:17.736Z,43.17
2022-10-17T12:21:19.940Z,43.95
2022-10-17T12:24:36.106Z,36.42
2022-10-17T12:27:43.648Z,40.25
2022-10-17T12:30:59.028Z,34.97
2022-10-17T12:34:03.175Z,41.63
2022-10-17T12:37:11.922Z,37.70
2022-10-17T12:40:52.586Z,41.50
2022-10-17T12:43:55.052Z,41.47
2022-10-17T12:47:08.044Z,37.22
2022-10-17T12:50:52.296Z,29.35
2022-10-17T12:54:12.141Z,34.38
2022-10-17T12:57:23.903Z,36.65
2022-10-17T13:01:11.628Z,32.00
2022-10-17T13:04:14.428Z,38.67
2022-10-17T13:07:22.413Z,42.00
2022-10-17T13:10:28.056Z,35.97
2022-10-17T13:13:43.426Z,41.00
2022-10-17T13:17:00.320Z,36.83
2022-10-17T13:20:02.606Z,35.45
2022-10-17T13:23:04.935Z,35.20
2022-10-17T13:26:20.587Z,43.65
2022-10-17T13:29:25.731Z,35.33
2022-10-17T13:32:36.789Z,41.30
2022-10-17T13:35:59.407Z,43.20
2022-10-17T13:39:12.496Z,41.30
2022-10-17T13:42:30.143Z,34.47
2022-10-17T13:45:37.008Z,38.13
2022-10-17T13:48:39.154Z,39.08
2022-10-17T13:51:45.156Z,47.33
2022-10-17T13:54:51.326Z,45.38
2022-10-17T13:57:53.747Z,36.28
2022-10-17T14:00:56.844Z,43.83
2022-10-17T14:04:20.071Z,42.80
2022-10-17T14:08:09.532Z,38.97
2022-10-17T14:11:22.165Z,38.42
2022-10-17T14:14:26.264Z,37.73
2022-10-17T14:17:30.098Z,41.63
2022-10-17T14:21:19.415Z,42.45
2022-10-17T14:24:22.600Z,41.58
2022-10-17T14:27:31.024Z,37.65
2022-10-17T14:30:55.613Z,48.00
2022-10-17T14:33:58.603Z,45.38
2022-10-17T14:37:01.289Z,49.70
2022-10-17T14:40:06.026Z,42.22
2022-10-17T14:43:27.714Z,41.38
2022-10-17T14:46:30.096Z,40.55
2022-10-17T14:49:40.522Z,51.17
2022-10-17T14:52:58.380Z,43.38
2022-10-17T14:56:06.216Z,40.42
2022-10-17T14:59:13.727Z,39.97
2022-10-17T15:02:21.332Z,43.53
2022-10-17T15:05:23.560Z,46.22
2022-10-17T15:08:25.899Z,43.55
2022-10-17T15:11:28.501Z,50.55
2022-10-17T15:14:30.703Z,44.83
2022-10-17T15:17:34.624Z,43.58
2022-10-17T15:20:37.389Z,48.65
2022-10-17T15:23:39.893Z,44.47
2022-10-17T15:26:42.109Z,40.72
2022-10-17T15:29:45.168Z,41.85
2022-10-17T15:32:47.718Z,41.88
2022-10-17T15:35:50.183Z,42.08
2022-10-17T15:38:55.749Z,42.47
2022-10-17T15:41:58.887Z,43.92
2022-10-17T15:45:01.050Z,44.45
2022-10-17T15:48:07.477Z,49.00
2022-10-17T15:51:10.041Z,47.20
2022-10-17T15:57:24.456Z,38.97
2022-10-17T16:00:26.589Z,43.25
2022-10-17T16:03:30.397Z,45.15
2022-10-17T16:06:32.475Z,41.80
2022-10-17T16:09:37.514Z,41.28
2022-10-17T16:12:42.759Z,49.25
2022-10-17T16:15:45.173Z,45.10
2022-10-17T16:18:47.471Z,47.53
2022-10-17T16:21:49.663Z,42.80
2022-10-17T16:24:58.361Z,48.10
2022-10-17T16:28:01.404Z,44.90
2022-10-17T16:31:03.526Z,42.50
2022-10-17T16:34:06.902Z,43.20
2022-10-17T16:37:09.114Z,41.00
2022-10-17T16:40:11.999Z,41.25
2022-10-17T16:43:14.275Z,41.22
2022-10-17T16:46:16.688Z,39.80
2022-10-17T16:49:18.878Z,41.42
2022-10-17T16:52:20.931Z,41.78
2022-10-17T16:55:23.084Z,37.08
2022-10-17T16:58:27.462Z,43.88
2022-10-17T17:01:29.586Z,39.42
2022-10-17T17:04:31.882Z,39.70
2022-10-17T17:07:34.292Z,36.17
2022-10-17T17:10:36.365Z,39.05
2022-10-17T17:13:39.282Z,37.10
2022-10-17T17:16:42.809Z,37.90
2022-10-17T17:19:45.099Z,35.60
2022-10-17T17:22:47.287Z,34.33
2022-10-17T17:25:50.793Z,34.22
2022-10-17T17:28:54.329Z,36.55
2022-10-17T17:31:56.553Z,38.58
2022-10-17T17:34:58.631Z,34.63
2022-10-17T17:38:03.126Z,38.50
2022-10-17T17:41:05.331Z,36.80
2022-10-17T17:44:11.221Z,36.60
2022-10-17T17:47:16.228Z,36.45
2022-10-17T17:50:18.798Z,43.08
2022-10-17T17:53:21.632Z,38.45
2022-10-17T17:56:26.970Z,39.45
2022-10-17T17:59:29.162Z,38.45
2022-10-17T18:02:31.680Z,39.60
2022-10-17T18:05:34.386Z,40.05
2022-10-17T18:08:36.751Z,40.33
2022-10-17T18:11:38.952Z,42.38
2022-10-17T18:14:41.152Z,46.25
2022-10-17T18:17:43.294Z,40.92
2022-10-17T18:20:45.432Z,39.25
2022-10-17T18:23:49.237Z,43.53
2022-10-17T18:26:54.011Z,42.50
2022-10-17T18:29:56.143Z,41.83
2022-10-17T18:32:58.192Z,40.65
2022-10-17T18:36:10.829Z,39.15
2022-10-17T18:39:12.939Z,36.88
2022-10-17T18:42:15.038Z,37.28
2022-10-17T18:45:17.574Z,48.58
2022-10-17T18:48:19.743Z,38.97
2022-10-17T18:51:24.422Z,38.03
2022-10-17T18:54:26.518Z,40.03
2022-10-17T18:57:28.933Z,41.10
2022-10-17T19:00:31.283Z,42.88
2022-10-17T19:03:33.842Z,46.70
2022-10-17T19:06:36.268Z,43.58
2022-10-17T19:09:38.463Z,41.50
2022-10-17T19:12:40.599Z,48.35
2022-10-17T19:15:42.743Z,43.83
2022-10-17T19:18:50.203Z,44.45
2022-10-17T19:21:53.018Z,50.10
2022-10-17T19:24:55.207Z,47.65
2022-10-17T19:27:58.010Z,46.55
2022-10-17T19:31:00.613Z,44.78
2022-10-17T19:34:02.886Z,47.20
2022-10-17T19:37:05.170Z,43.00
2022-10-17T19:40:08.090Z,41.95
2022-10-17T19:43:10.185Z,43.53
2022-10-17T19:46:18.226Z,47.47
2022-10-17T19:49:20.480Z,45.28
2022-10-17T19:52:22.721Z,49.22
2022-10-17T19:55:24.855Z,48.30
2022-10-17T19:58:28.210Z,47.65
2022-10-17T20:01:32.632Z,44.10
2022-10-17T20:04:34.741Z,47.47
2022-10-17T20:07:37.233Z,49.10
2022-10-17T20:10:39.651Z,49.78
2022-10-17T20:13:42.056Z,43.38
2022-10-17T20:16:44.994Z,44.97
2022-10-17T20:19:47.238Z,53.50
2022-10-17T20:22:49.406Z,52.72
2022-10-17T20:26:13.578Z,55.47
2022-10-17T20:29:25.366Z,43.45
2022-10-17T20:32:28.556Z,51.63
2022-10-17T20:35:30.858Z,45.80
2022-10-17T20:38:32.951Z,50.00
2022-10-17T20:41:35.272Z,50.67
2022-10-17T20:44:37.525Z,45.17
2022-10-17T20:47:47.095Z,46.35
2022-10-17T20:50:51.341Z,49.10
2022-10-17T20:53:53.955Z,50.88
2022-10-17T20:56:58.664Z,53.30
2022-10-17T21:00:05.322Z,49.72
2022-10-17T21:03:07.897Z,49.53
2022-10-17T21:06:10.873Z,51.42
2022-10-17T21:09:13.105Z,48.67
2022-10-17T21:12:21.838Z,52.38
2022-10-17T21:15:33.385Z,50.53
2022-10-17T21:18:35.844Z,54.03
2022-10-17T21:21:40.592Z,53.05
2022-10-17T21:24:42.764Z,53.60
2022-10-17T21:27:44.981Z,45.97
2022-10-17T21:30:47.207Z,50.50
2022-10-17T21:33:51.907Z,51.40
2022-10-17T21:36:54.073Z,49.47
2022-10-17T21:39:56.160Z,49.72
2022-10-17T21:42:58.316Z,54.47
2022-10-17T21:46:11.545Z,50.90
2022-10-17T21:49:16.216Z,49.90
2022-10-17T21:52:18.302Z,51.97
2022-10-17T21:55:20.328Z,50.75
2022-10-17T21:58:22.460Z,51.70
2022-10-17T22:01:29.935Z,47.25
2022-10-17T22:04:32.113Z,49.88
2022-10-17T22:07:34.628Z,49.30
2022-10-17T22:10:37.950Z,50.53
2022-10-17T22:13:40.546Z,49.45
2022-10-17T22:16:45.122Z,51.10
2022-10-17T22:19:47.829Z,49.95
2022-10-17T22:22:49.891Z,50.50
2022-10-17T22:25:57.316Z,47.85
2022-10-17T22:28:59.926Z,49.25
2022-10-17T22:32:02.055Z,52.80
2022-10-17T22:35:04.481Z,55.30
2022-10-17T22:38:06.677Z,45.97
2022-10-17T22:41:08.972Z,47.30
2022-10-17T22:44:11.105Z,50.53
2022-10-17T22:47:13.504Z,50.40
2022-10-17T22:50:15.741Z,52.03
2022-10-17T22:53:24.531Z,49.10
2022-10-17T22:56:26.706Z,51.15
2022-10-17T22:59:28.909Z,51.83
2022-10-17T23:02:32.301Z,48.15
2022-10-17T23:05:34.724Z,47.72
2022-10-17T23:08:37.387Z,45.72
2022-10-17T23:11:39.728Z,49.88
2022-10-17T23:14:43.629Z,49.35
2022-10-17T23:17:45.787Z,48.80
2022-10-17T23:20:48.626Z,50.20
2022-10-17T23:23:50.870Z,46.40
2022-10-17T23:26:53.115Z,48.90
2022-10-17T23:29:55.361Z,48.20
2022-10-17T23:32:57.573Z,46.92
2022-10-17T23:35:59.684Z,54.28
2022-10-17T23:39:02.210Z,49.10
2022-10-17T23:42:04.469Z,51.28
2022-10-17T23:45:07.316Z,50.60
2022-10-17T23:48:09.489Z,47.90
2022-10-17T23:51:11.999Z,48.40
2022-10-17T23:54:14.177Z,54.33
2022-10-17T23:57:16.395Z,50.88
